createdAt,value
2018-03-17T00:00:08.391Z,83.73
2018-03-17T00:01:08.612Z,84.11
2018-03-17T00:02:08.821Z,83.73
2018-03-17T00:03:09.078Z,84.20
2018-03-17T00:04:09.318Z,83.92
2018-03-17T00:05:09.569Z,84.01
2018-03-17T00:06:09.790Z,83.17
2018-03-17T00:07:10.043Z,84.01
2018-03-17T00:08:10.265Z,84.49
2018-03-17T00:09:10.544Z,84.30
2018-03-17T00:10:10.778Z,84.39
2018-03-17T00:11:11.017Z,84.01
2018-03-17T00:12:11.238Z,83.83
2018-03-17T00:13:11.467Z,84.01
2018-03-17T00:14:11.742Z,83.92
2018-03-17T00:15:11.950Z,83.64
2018-03-17T00:16:12.178Z,84.01
2018-03-17T00:17:12.403Z,84.20
2018-03-17T00:18:12.647Z,84.58
2018-03-17T00:19:12.933Z,84.11
2018-03-17T00:20:13.168Z,83.83
2018-03-17T00:21:13.437Z,84.01
2018-03-17T00:22:13.627Z,84.01
2018-03-17T00:23:13.840Z,83.92
2018-03-17T00:24:14.082Z,84.20
2018-03-17T00:25:14.339Z,84.58
2018-03-17T00:26:14.566Z,84.39
2018-03-17T00:27:14.815Z,84.20
2018-03-17T00:28:15.048Z,83.92
2018-03-17T00:29:15.304Z,83.92
2018-03-17T00:30:15.537Z,84.20
2018-03-17T00:31:15.822Z,84.11
2018-03-17T00:32:16.085Z,84.30
2018-03-17T00:33:16.336Z,83.26
2018-03-17T00:34:16.539Z,83.92
2018-03-17T00:35:16.766Z,84.20
2018-03-17T00:36:17.020Z,83.92
2018-03-17T00:37:17.264Z,84.58
2018-03-17T00:38:17.491Z,83.83
2018-03-17T00:39:17.720Z,83.73
2018-03-17T00:40:17.968Z,84.20
2018-03-17T00:41:18.217Z,84.49
2018-03-17T00:42:18.430Z,85.43
2018-03-17T00:43:18.674Z,84.11
2018-03-17T00:44:18.942Z,83.73
2018-03-17T00:45:19.174Z,84.11
2018-03-17T00:47:53.501Z,83.92
2018-03-17T00:48:53.753Z,84.01
2018-03-17T00:49:53.998Z,83.26
2018-03-17T00:50:54.245Z,83.64
2018-03-17T00:51:54.490Z,83.83
2018-03-17T00:52:54.729Z,83.73
2018-03-17T00:53:54.959Z,83.26
2018-03-17T00:54:55.215Z,83.45
2018-03-17T00:55:55.454Z,83.83
2018-03-17T00:56:55.698Z,84.11
2018-03-17T00:57:55.937Z,83.64
2018-03-17T00:58:56.184Z,84.01
2018-03-17T00:59:56.433Z,84.20
2018-03-17T01:00:56.679Z,84.01
2018-03-17T01:01:56.925Z,84.11
2018-03-17T01:02:57.174Z,83.45
2018-03-17T01:03:57.420Z,84.01
2018-03-17T01:04:57.670Z,83.45
2018-03-17T01:05:57.911Z,83.83
2018-03-17T01:06:58.160Z,83.73
2018-03-17T01:07:58.406Z,83.73
2018-03-17T01:08:58.653Z,84.01
2018-03-17T01:09:58.901Z,83.54
2018-03-17T01:10:59.151Z,83.26
2018-03-17T01:11:59.387Z,83.26
2018-03-17T01:12:59.626Z,83.64
2018-03-17T01:13:59.905Z,83.73
2018-03-17T01:15:00.148Z,84.11
2018-03-17T01:16:00.397Z,83.54
2018-03-17T01:17:00.641Z,84.01
2018-03-17T01:18:00.883Z,84.01
2018-03-17T01:19:01.127Z,83.73
2018-03-17T01:20:01.373Z,84.11
2018-03-17T01:21:01.618Z,83.54
2018-03-17T01:22:01.857Z,84.01
2018-03-17T01:23:02.098Z,83.45
2018-03-17T01:24:02.358Z,83.73
2018-03-17T01:25:02.585Z,83.07
2018-03-17T01:26:02.839Z,83.26
2018-03-17T01:27:03.090Z,83.54
2018-03-17T01:28:03.322Z,82.88
2018-03-17T01:29:03.560Z,83.54
2018-03-17T01:30:03.790Z,83.17
2018-03-17T01:31:04.021Z,83.45
2018-03-17T01:32:04.259Z,84.01
2018-03-17T01:33:04.536Z,83.54
2018-03-17T01:34:04.748Z,83.54
2018-03-17T01:35:05.000Z,83.64
2018-03-17T01:36:05.232Z,83.54
2018-03-17T01:37:05.463Z,84.01
2018-03-17T01:38:05.767Z,84.30
2018-03-17T01:39:05.970Z,83.83
2018-03-17T01:40:06.164Z,83.45
2018-03-17T01:41:06.408Z,83.54
2018-03-17T01:42:06.643Z,83.07
2018-03-17T01:43:06.885Z,83.45
2018-03-17T01:44:07.116Z,83.54
2018-03-17T01:45:07.354Z,83.36
2018-03-17T01:46:07.588Z,83.83
2018-03-17T01:47:07.853Z,83.54
2018-03-17T01:48:08.098Z,82.69
2018-03-17T01:49:08.310Z,82.41
2018-03-17T01:50:08.552Z,82.69
2018-03-17T01:51:08.792Z,82.88
2018-03-17T01:52:09.031Z,82.88
2018-03-17T01:53:09.286Z,83.54
2018-03-17T01:54:09.528Z,82.50
2018-03-17T01:55:09.749Z,82.50
2018-03-17T01:56:09.988Z,82.69
2018-03-17T01:57:10.233Z,82.79
2018-03-17T01:58:10.455Z,82.69
2018-03-17T01:59:10.711Z,82.60
2018-03-17T02:00:10.924Z,83.07
2018-03-17T02:01:11.155Z,82.88
2018-03-17T02:02:11.417Z,82.98
2018-03-17T02:03:11.654Z,82.31
2018-03-17T02:04:11.886Z,82.22
2018-03-17T02:05:12.122Z,81.93
2018-03-17T02:06:12.368Z,81.84
2018-03-17T02:07:12.603Z,82.50
2018-03-17T02:08:12.837Z,82.60
2018-03-17T02:09:13.088Z,82.12
2018-03-17T02:10:13.424Z,82.79
2018-03-17T02:11:13.628Z,82.50
2018-03-17T02:12:13.840Z,82.46
2018-03-17T02:13:14.029Z,82.50
2018-03-17T02:14:14.263Z,82.60
2018-03-17T02:15:14.500Z,82.98
2018-03-17T02:16:14.748Z,82.50
2018-03-17T02:17:15.081Z,82.79
2018-03-17T02:18:15.251Z,82.98
2018-03-17T02:19:15.483Z,82.56
2018-03-17T02:20:15.726Z,82.60
2018-03-17T02:21:15.960Z,82.56
2018-03-17T02:22:16.237Z,82.65
2018-03-17T02:23:16.426Z,82.93
2018-03-17T02:24:16.641Z,82.56
2018-03-17T02:25:16.902Z,82.37
2018-03-17T02:26:17.112Z,82.28
2018-03-17T02:27:17.368Z,82.56
2018-03-17T02:28:17.621Z,82.65
2018-03-17T02:29:17.845Z,82.46
2018-03-17T02:30:18.076Z,82.75
2018-03-17T02:31:18.312Z,82.75
2018-03-17T02:32:18.559Z,82.56
2018-03-17T02:33:18.798Z,83.59
2018-03-17T02:34:19.064Z,82.65
2018-03-17T02:35:19.292Z,82.93
2018-03-17T02:36:19.536Z,82.46
2018-03-17T02:37:19.773Z,83.59
2018-03-17T02:38:19.983Z,83.31
2018-03-17T02:39:20.229Z,82.65
2018-03-17T02:40:20.450Z,82.18
2018-03-17T02:41:20.707Z,82.56
2018-03-17T02:42:20.960Z,82.56
2018-03-17T02:43:21.169Z,82.65
2018-03-17T02:44:21.407Z,82.09
2018-03-17T02:45:21.655Z,82.18
2018-03-17T02:46:21.890Z,82.18
2018-03-17T02:47:22.129Z,82.84
2018-03-17T02:48:22.362Z,82.84
2018-03-17T02:50:55.693Z,82.84
2018-03-17T02:51:55.937Z,82.46
2018-03-17T02:52:56.184Z,82.65
2018-03-17T02:53:56.430Z,82.65
2018-03-17T02:54:56.683Z,82.18
2018-03-17T02:55:56.914Z,82.46
2018-03-17T02:56:57.160Z,82.56
2018-03-17T02:57:57.400Z,82.46
2018-03-17T02:58:57.647Z,82.65
2018-03-17T02:59:57.884Z,82.37
2018-03-17T03:00:58.129Z,82.18
2018-03-17T03:01:58.377Z,82.84
2018-03-17T03:02:58.617Z,82.28
2018-03-17T03:03:58.863Z,82.46
2018-03-17T03:04:59.103Z,82.37
2018-03-17T03:05:59.357Z,82.56
2018-03-17T03:06:59.608Z,82.75
2018-03-17T03:07:59.829Z,82.37
2018-03-17T03:09:00.075Z,82.37
2018-03-17T03:10:00.318Z,82.56
2018-03-17T03:11:00.564Z,82.75
2018-03-17T03:12:00.805Z,82.28
2018-03-17T03:13:01.048Z,82.75
2018-03-17T03:14:01.293Z,81.99
2018-03-17T03:15:01.546Z,82.75
2018-03-17T03:16:01.797Z,82.28
2018-03-17T03:17:02.024Z,82.46
2018-03-17T03:18:02.271Z,82.93
2018-03-17T03:19:02.516Z,82.75
2018-03-17T03:20:02.762Z,83.40
2018-03-17T03:21:02.989Z,83.22
2018-03-17T03:22:03.240Z,82.46
2018-03-17T03:23:03.481Z,82.46
2018-03-17T03:24:03.720Z,81.99
2018-03-17T03:25:04.034Z,82.65
2018-03-17T03:26:04.206Z,82.56
2018-03-17T03:27:04.461Z,82.37
2018-03-17T03:28:04.680Z,82.46
2018-03-17T03:29:04.936Z,82.65
2018-03-17T03:30:05.138Z,82.75
2018-03-17T03:31:05.460Z,82.46
2018-03-17T03:32:05.621Z,82.84
2018-03-17T03:33:05.864Z,82.56
2018-03-17T03:34:06.086Z,82.46
2018-03-17T03:35:06.323Z,82.18
2018-03-17T03:36:06.578Z,81.80
2018-03-17T03:37:06.827Z,82.18
2018-03-17T03:38:07.057Z,82.28
2018-03-17T03:39:07.310Z,82.28
2018-03-17T03:40:07.544Z,82.56
2018-03-17T03:41:07.780Z,82.09
2018-03-17T03:42:08.093Z,82.18
2018-03-17T03:43:08.295Z,82.37
2018-03-17T03:44:08.497Z,82.28
2018-03-17T03:45:08.755Z,82.28
2018-03-17T03:46:09.005Z,81.99
2018-03-17T03:47:09.217Z,82.28
2018-03-17T03:48:09.453Z,82.46
2018-03-17T03:49:09.698Z,82.37
2018-03-17T03:50:09.943Z,83.03
2018-03-17T03:51:10.234Z,82.46
2018-03-17T03:52:10.445Z,82.75
2018-03-17T03:53:10.669Z,82.09
2018-03-17T03:54:10.898Z,82.18
2018-03-17T03:55:11.145Z,81.52
2018-03-17T03:56:11.372Z,81.80
2018-03-17T03:57:11.620Z,81.90
2018-03-17T03:58:11.893Z,81.42
2018-03-17T03:59:12.173Z,81.52
2018-03-17T04:00:12.371Z,81.42
2018-03-17T04:01:12.606Z,81.42
2018-03-17T04:02:12.835Z,82.18
2018-03-17T04:03:13.044Z,82.09
2018-03-17T04:04:13.278Z,82.37
2018-03-17T04:05:13.517Z,82.18
2018-03-17T04:06:13.752Z,81.71
2018-03-17T04:07:13.991Z,81.61
2018-03-17T04:08:14.238Z,81.52
2018-03-17T04:09:14.459Z,81.90
2018-03-17T04:10:14.695Z,82.09
2018-03-17T04:11:14.935Z,81.61
2018-03-17T04:12:15.153Z,81.95
2018-03-17T04:13:15.398Z,81.76
2018-03-17T04:14:15.649Z,81.85
2018-03-17T04:15:15.940Z,82.04
2018-03-17T04:16:16.164Z,82.18
2018-03-17T04:17:16.385Z,81.48
2018-03-17T04:18:16.637Z,81.67
2018-03-17T04:19:16.881Z,81.57
2018-03-17T04:20:17.134Z,81.67
2018-03-17T04:21:17.383Z,81.85
2018-03-17T04:22:17.611Z,82.14
2018-03-17T04:23:17.871Z,81.85
2018-03-17T04:24:18.086Z,82.14
2018-03-17T04:25:18.346Z,82.04
2018-03-17T04:26:18.546Z,82.04
2018-03-17T04:27:18.806Z,82.23
2018-03-17T04:28:19.074Z,82.23
2018-03-17T04:29:19.280Z,81.33
2018-03-17T04:30:19.536Z,81.71
2018-03-17T04:31:19.752Z,81.42
2018-03-17T04:32:20.013Z,81.42
2018-03-17T04:33:20.216Z,80.76
2018-03-17T04:34:20.464Z,80.85
2018-03-17T04:35:20.691Z,80.85
2018-03-17T04:36:20.920Z,80.85
2018-03-17T04:37:21.147Z,81.23
2018-03-17T04:38:21.389Z,81.14
2018-03-17T04:39:21.626Z,81.42
2018-03-17T04:40:21.847Z,80.95
2018-03-17T04:41:22.077Z,80.95
2018-03-17T04:42:22.332Z,80.95
2018-03-17T04:43:22.559Z,81.23
2018-03-17T04:44:22.806Z,80.76
2018-03-17T04:45:23.033Z,80.57
2018-03-17T04:46:23.269Z,80.29
2018-03-17T04:47:23.496Z,80.34
2018-03-17T04:48:23.724Z,80.85
2018-03-17T04:49:23.979Z,80.66
2018-03-17T04:50:24.217Z,80.85
2018-03-17T04:51:24.442Z,81.29
2018-03-17T04:52:24.675Z,80.63
2018-03-17T04:53:24.931Z,81.20
2018-03-17T04:54:25.136Z,80.72
2018-03-17T04:55:25.372Z,80.72
2018-03-17T04:56:25.601Z,80.63
2018-03-17T04:57:25.923Z,80.72
2018-03-17T04:58:26.094Z,80.72
2018-03-17T04:59:26.310Z,80.63
2018-03-17T05:00:26.553Z,80.44
2018-03-17T05:01:26.789Z,80.82
2018-03-17T05:02:27.033Z,80.72
2018-03-17T05:03:27.260Z,80.85
2018-03-17T05:04:27.493Z,81.14
2018-03-17T05:05:27.734Z,81.20
2018-03-17T05:06:27.976Z,81.20
2018-03-17T05:07:28.212Z,80.85
2018-03-17T05:08:28.462Z,80.66
2018-03-17T05:09:28.700Z,79.63
2018-03-17T05:10:28.954Z,79.87
2018-03-17T05:11:29.210Z,80.19
2018-03-17T05:12:29.437Z,80.15
2018-03-17T05:13:29.665Z,80.34
2018-03-17T05:14:29.927Z,80.63
2018-03-17T05:15:30.179Z,80.25
2018-03-17T05:16:30.384Z,80.25
2018-03-17T05:17:30.606Z,80.44
2018-03-17T05:18:30.884Z,80.15
2018-03-17T05:19:31.109Z,80.63
2018-03-17T05:20:31.339Z,80.53
2018-03-17T05:21:31.611Z,80.53
2018-03-17T05:22:31.821Z,80.34
2018-03-17T05:23:32.044Z,80.15
2018-03-17T05:26:05.421Z,80.91
2018-03-17T05:27:05.614Z,80.53
2018-03-17T05:28:05.862Z,80.82
2018-03-17T05:29:06.109Z,80.82
2018-03-17T05:30:06.349Z,80.53
2018-03-17T05:31:06.595Z,80.15
2018-03-17T05:32:06.841Z,79.78
2018-03-17T05:33:07.085Z,80.06
2018-03-17T05:34:07.331Z,79.78
2018-03-17T05:35:07.572Z,80.44
2018-03-17T05:36:07.814Z,80.72
2018-03-17T05:37:08.060Z,80.44
2018-03-17T05:38:08.301Z,80.34
2018-03-17T05:39:08.543Z,80.53
2018-03-17T05:40:08.783Z,80.34
2018-03-17T05:41:09.038Z,80.25
2018-03-17T05:42:09.280Z,80.34
2018-03-17T05:43:09.520Z,79.68
2018-03-17T05:44:09.782Z,79.78
2018-03-17T05:45:10.024Z,79.59
2018-03-17T05:46:10.266Z,80.15
2018-03-17T05:47:10.504Z,80.15
2018-03-17T05:48:10.750Z,80.91
2018-03-17T05:49:10.994Z,80.91
2018-03-17T05:50:11.248Z,80.15
2018-03-17T05:51:11.476Z,80.44
2018-03-17T05:52:11.758Z,80.06
2018-03-17T05:53:11.966Z,79.97
2018-03-17T05:54:12.208Z,79.68
2018-03-17T05:55:12.452Z,79.68
2018-03-17T05:56:12.695Z,79.21
2018-03-17T05:57:12.933Z,79.02
2018-03-17T05:58:13.187Z,79.30
2018-03-17T05:59:13.438Z,79.21
2018-03-17T06:00:13.683Z,79.49
2018-03-17T06:01:13.925Z,79.59
2018-03-17T06:02:14.173Z,79.11
2018-03-17T06:03:14.416Z,79.11
2018-03-17T06:04:14.664Z,79.68
2018-03-17T06:05:14.907Z,79.59
2018-03-17T06:06:15.159Z,79.40
2018-03-17T06:07:15.396Z,79.68
2018-03-17T06:08:15.627Z,79.78
2018-03-17T06:09:15.887Z,79.78
2018-03-17T06:10:16.124Z,79.68
2018-03-17T06:11:16.380Z,79.78
2018-03-17T06:12:16.618Z,79.78
2018-03-17T06:13:16.865Z,80.06
2018-03-17T06:14:17.090Z,80.06
2018-03-17T06:15:17.379Z,80.25
2018-03-17T06:16:17.598Z,80.34
2018-03-17T06:17:17.905Z,80.25
2018-03-17T06:18:18.094Z,79.87
2018-03-17T06:19:18.336Z,80.15
2018-03-17T06:20:18.578Z,79.21
2018-03-17T06:21:18.822Z,79.40
2018-03-17T06:22:19.066Z,79.30
2018-03-17T06:23:19.310Z,79.11
2018-03-17T06:24:19.555Z,79.40
2018-03-17T06:25:19.826Z,78.92
2018-03-17T06:26:20.056Z,79.11
2018-03-17T06:27:20.304Z,79.30
2018-03-17T06:28:20.544Z,79.11
2018-03-17T06:29:20.788Z,79.21
2018-03-17T06:30:21.033Z,79.02
2018-03-17T06:31:21.274Z,79.68
2018-03-17T06:32:21.510Z,79.68
2018-03-17T06:33:21.745Z,79.68
2018-03-17T06:34:22.045Z,79.97
2018-03-17T06:35:22.268Z,80.06
2018-03-17T06:36:22.467Z,79.49
2018-03-17T06:37:22.697Z,79.02
2018-03-17T06:38:22.933Z,79.30
2018-03-17T06:39:23.180Z,79.40
2018-03-17T06:40:23.936Z,79.02
2018-03-17T06:41:23.770Z,79.40
2018-03-17T06:42:24.011Z,79.68
2018-03-17T06:43:24.225Z,79.40
2018-03-17T06:44:24.479Z,79.02
2018-03-17T06:45:24.709Z,79.30
2018-03-17T06:46:24.951Z,79.30
2018-03-17T06:47:25.195Z,79.02
2018-03-17T06:48:25.444Z,79.21
2018-03-17T06:49:25.695Z,79.11
2018-03-17T06:50:25.932Z,78.55
2018-03-17T06:51:26.173Z,78.64
2018-03-17T06:52:26.418Z,78.74
2018-03-17T06:53:26.661Z,79.02
2018-03-17T06:54:26.906Z,78.74
2018-03-17T06:55:27.150Z,78.55
2018-03-17T06:56:27.390Z,78.36
2018-03-17T06:57:27.654Z,78.55
2018-03-17T06:58:27.898Z,78.17
2018-03-17T06:59:28.149Z,78.45
2018-03-17T07:00:28.400Z,78.27
2018-03-17T07:01:28.646Z,78.17
2018-03-17T07:02:28.883Z,78.92
2018-03-17T07:03:29.122Z,78.17
2018-03-17T07:04:29.937Z,78.27
2018-03-17T07:05:29.710Z,78.36
2018-03-17T07:06:29.961Z,78.45
2018-03-17T07:07:30.202Z,78.36
2018-03-17T07:08:30.449Z,78.36
2018-03-17T07:09:30.693Z,78.27
2018-03-17T07:10:30.935Z,77.51
2018-03-17T07:11:31.183Z,77.42
2018-03-17T07:12:31.424Z,77.42
2018-03-17T07:13:31.673Z,77.70
2018-03-17T07:14:31.915Z,77.61
2018-03-17T07:15:32.161Z,77.80
2018-03-17T07:16:32.412Z,77.61
2018-03-17T07:17:32.645Z,77.89
2018-03-17T07:18:32.885Z,77.32
2018-03-17T07:19:33.133Z,78.45
2018-03-17T07:20:33.378Z,78.45
2018-03-17T07:21:33.626Z,77.70
2018-03-17T07:22:33.884Z,77.80
2018-03-17T07:23:34.119Z,77.98
2018-03-17T07:24:34.372Z,77.70
2018-03-17T07:25:34.596Z,77.32
2018-03-17T07:26:34.837Z,77.80
2018-03-17T07:27:35.096Z,78.27
2018-03-17T07:28:35.323Z,78.55
2018-03-17T07:29:35.568Z,78.83
2018-03-17T07:30:35.811Z,78.55
2018-03-17T07:31:36.058Z,78.17
2018-03-17T07:32:36.308Z,78.55
2018-03-17T07:33:36.549Z,78.92
2018-03-17T07:34:36.792Z,79.49
2018-03-17T07:35:37.029Z,78.92
2018-03-17T07:36:37.274Z,77.61
2018-03-17T07:37:37.518Z,78.08
2018-03-17T07:38:37.766Z,77.80
2018-03-17T07:39:38.013Z,78.08
2018-03-17T07:40:38.260Z,77.51
2018-03-17T07:41:38.512Z,77.61
2018-03-17T07:42:38.765Z,77.61
2018-03-17T07:43:39.011Z,77.80
2018-03-17T07:44:39.259Z,77.80
2018-03-17T07:45:39.514Z,77.80
2018-03-17T07:46:39.753Z,77.23
2018-03-17T07:47:39.970Z,77.61
2018-03-17T07:48:40.226Z,77.80
2018-03-17T07:49:40.463Z,77.61
2018-03-17T07:50:40.716Z,77.23
2018-03-17T07:51:40.932Z,77.42
2018-03-17T07:52:41.180Z,77.13
2018-03-17T07:53:41.419Z,77.04
2018-03-17T07:54:41.650Z,77.32
2018-03-17T07:55:41.892Z,77.23
2018-03-17T07:56:42.142Z,76.76
2018-03-17T07:57:42.370Z,77.23
2018-03-17T07:58:42.616Z,77.23
2018-03-17T07:59:42.866Z,77.61
2018-03-17T08:00:43.120Z,77.42
2018-03-17T08:01:43.331Z,76.66
2018-03-17T08:04:16.660Z,75.71
2018-03-17T08:05:16.907Z,76.66
2018-03-17T08:06:17.169Z,76.85
2018-03-17T08:07:17.414Z,77.51
2018-03-17T08:08:17.659Z,76.76
2018-03-17T08:09:17.907Z,76.47
2018-03-17T08:10:18.154Z,75.62
2018-03-17T08:11:18.396Z,75.81
2018-03-17T08:12:18.640Z,75.62
2018-03-17T08:13:18.891Z,76.38
2018-03-17T08:14:19.134Z,76.38
2018-03-17T08:15:19.381Z,76.57
2018-03-17T08:16:19.624Z,76.95
2018-03-17T08:17:19.871Z,76.76
2018-03-17T08:18:20.116Z,76.57
2018-03-17T08:19:20.363Z,76.95
2018-03-17T08:20:20.609Z,76.66
2018-03-17T08:21:20.854Z,76.57
2018-03-17T08:22:21.194Z,76.66
2018-03-17T08:23:21.406Z,76.19
2018-03-17T08:24:21.653Z,75.24
2018-03-17T08:25:21.987Z,75.43
2018-03-17T08:26:22.241Z,75.24
2018-03-17T08:27:22.473Z,75.90
2018-03-17T08:28:22.720Z,76.00
2018-03-17T08:29:22.964Z,76.00
2018-03-17T08:30:23.215Z,76.19
2018-03-17T08:31:23.460Z,76.09
2018-03-17T08:32:23.692Z,76.38
2018-03-17T08:33:23.952Z,75.43
2018-03-17T08:34:24.196Z,75.24
2018-03-17T08:35:24.429Z,75.81
2018-03-17T08:36:24.657Z,75.81
2018-03-17T08:37:24.903Z,75.53
2018-03-17T08:38:25.141Z,75.24
2018-03-17T08:39:25.424Z,75.43
2018-03-17T08:40:25.619Z,75.24
2018-03-17T08:41:25.860Z,75.43
2018-03-17T08:42:26.098Z,75.43
2018-03-17T08:43:26.336Z,74.96
2018-03-17T08:44:26.587Z,74.58
2018-03-17T08:45:26.823Z,74.58
2018-03-17T08:46:27.071Z,74.68
2018-03-17T08:47:27.310Z,74.87
2018-03-17T08:48:27.536Z,74.30
2018-03-17T08:49:27.784Z,74.30
2018-03-17T08:50:28.048Z,74.77
2018-03-17T08:51:28.270Z,74.02
2018-03-17T08:52:28.496Z,73.36
2018-03-17T08:53:28.732Z,73.45
2018-03-17T08:54:30.581Z,73.93
2018-03-17T08:55:30.570Z,74.11
2018-03-17T08:56:30.802Z,74.30
2018-03-17T08:57:30.040Z,74.68
2018-03-17T08:58:30.302Z,74.96
2018-03-17T08:59:31.704Z,74.96
2018-03-17T09:03:03.301Z,73.93
2018-03-17T09:04:03.548Z,73.45
2018-03-17T09:05:03.792Z,73.83
2018-03-17T09:06:04.042Z,74.68
2018-03-17T09:07:04.286Z,74.58
2018-03-17T09:08:04.532Z,74.77
2018-03-17T09:09:04.771Z,74.77
2018-03-17T09:10:05.023Z,74.87
2018-03-17T09:11:05.287Z,75.05
2018-03-17T09:12:05.534Z,75.43
2018-03-17T09:13:05.781Z,74.96
2018-03-17T09:14:06.030Z,74.77
2018-03-17T09:15:06.268Z,74.40
2018-03-17T09:16:06.512Z,73.83
2018-03-17T09:17:06.757Z,73.74
2018-03-17T09:18:07.022Z,74.21
2018-03-17T09:19:07.267Z,74.77
2018-03-17T09:20:07.494Z,74.77
2018-03-17T09:21:07.734Z,74.77
2018-03-17T09:22:07.982Z,73.93
2018-03-17T09:23:08.225Z,74.21
2018-03-17T09:24:08.499Z,74.58
2018-03-17T09:25:08.748Z,74.49
2018-03-17T09:26:09.038Z,74.87
2018-03-17T09:27:09.286Z,74.21
2018-03-17T09:28:09.532Z,73.36
2018-03-17T09:29:09.774Z,74.02
2018-03-17T09:30:10.015Z,73.93
2018-03-17T09:31:10.262Z,73.93
2018-03-17T09:32:10.508Z,73.74
2018-03-17T09:33:10.761Z,74.40
2018-03-17T09:34:11.014Z,73.45
2018-03-17T09:35:11.265Z,73.45
2018-03-17T09:36:11.568Z,73.93
2018-03-17T09:37:11.759Z,74.11
2018-03-17T09:38:12.008Z,74.11
2018-03-17T09:39:12.257Z,74.21
2018-03-17T09:40:12.504Z,74.11
2018-03-17T09:41:12.745Z,74.77
2018-03-17T09:42:13.030Z,73.17
2018-03-17T09:43:13.243Z,73.17
2018-03-17T09:44:13.491Z,73.55
2018-03-17T09:45:13.739Z,73.36
2018-03-17T09:46:13.985Z,74.40
2018-03-17T09:47:14.224Z,73.83
2018-03-17T09:48:14.470Z,73.74
2018-03-17T09:49:14.714Z,72.98
2018-03-17T09:50:14.958Z,72.69
2018-03-17T09:51:15.199Z,72.98
2018-03-17T09:52:15.471Z,72.79
2018-03-17T09:53:15.694Z,72.79
2018-03-17T09:54:15.944Z,73.64
2018-03-17T09:55:16.196Z,73.60
2018-03-17T09:56:16.446Z,73.45
2018-03-17T09:57:16.690Z,73.32
2018-03-17T09:58:16.939Z,73.74
2018-03-17T09:59:17.203Z,73.93
2018-03-17T10:00:17.450Z,73.69
2018-03-17T10:01:17.692Z,74.02
2018-03-17T10:02:17.938Z,74.02
2018-03-17T10:03:18.182Z,74.58
2018-03-17T10:04:18.431Z,75.43
2018-03-17T10:05:18.679Z,74.96
2018-03-17T10:06:18.918Z,74.58
2018-03-17T10:07:19.164Z,72.88
2018-03-17T10:08:19.408Z,72.79
2018-03-17T10:09:19.656Z,72.51
2018-03-17T10:10:19.915Z,72.98
2018-03-17T10:11:20.223Z,73.17
2018-03-17T10:12:20.400Z,72.41
2018-03-17T10:13:20.647Z,72.41
2018-03-17T10:14:20.899Z,72.51
2018-03-17T10:15:21.146Z,72.22
2018-03-17T10:16:21.397Z,72.69
2018-03-17T10:17:21.642Z,72.41
2018-03-17T10:18:21.915Z,72.69
2018-03-17T10:19:22.138Z,72.22
2018-03-17T10:20:22.441Z,71.84
2018-03-17T10:21:23.296Z,72.13
2018-03-17T10:22:22.856Z,72.03
2018-03-17T10:23:23.129Z,72.79
2018-03-17T10:24:23.381Z,72.22
2018-03-17T10:25:23.629Z,71.66
2018-03-17T10:26:23.874Z,71.66
2018-03-17T10:27:24.131Z,71.84
2018-03-17T10:28:24.377Z,71.75
2018-03-17T10:29:24.642Z,71.75
2018-03-17T10:30:24.879Z,72.51
2018-03-17T10:31:25.124Z,71.84
2018-03-17T10:32:25.374Z,71.56
2018-03-17T10:33:25.618Z,72.03
2018-03-17T10:34:25.858Z,72.79
2018-03-17T10:35:26.101Z,72.98
2018-03-17T10:36:26.352Z,72.88
2018-03-17T10:37:26.592Z,72.79
2018-03-17T10:38:26.835Z,72.51
2018-03-17T10:39:27.086Z,72.41
2018-03-17T10:40:27.329Z,72.79
2018-03-17T10:41:27.576Z,72.47
2018-03-17T10:42:27.819Z,73.41
2018-03-17T10:43:28.066Z,73.69
2018-03-17T10:44:28.314Z,73.41
2018-03-17T10:45:28.562Z,73.45
2018-03-17T10:46:28.808Z,73.26
2018-03-17T10:47:29.054Z,73.55
2018-03-17T10:48:29.306Z,73.07
2018-03-17T10:49:29.562Z,72.98
2018-03-17T10:50:29.800Z,72.41
2018-03-17T10:51:30.049Z,71.91
2018-03-17T10:52:30.293Z,72.60
2018-03-17T10:53:30.535Z,72.51
2018-03-17T10:54:30.793Z,72.38
2018-03-17T10:55:31.041Z,72.51
2018-03-17T10:56:31.285Z,72.79
2018-03-17T10:57:31.532Z,72.79
2018-03-17T10:58:31.780Z,72.32
2018-03-17T10:59:32.028Z,72.79
2018-03-17T11:00:32.278Z,72.98
2018-03-17T11:01:32.523Z,72.69
2018-03-17T11:02:32.763Z,72.79
2018-03-17T11:03:33.008Z,72.32
2018-03-17T11:04:33.258Z,72.41
2018-03-17T11:05:33.500Z,72.41
2018-03-17T11:06:33.744Z,72.51
2018-03-17T11:07:33.991Z,72.00
2018-03-17T11:08:34.231Z,72.38
2018-03-17T11:09:34.477Z,72.60
2018-03-17T11:10:34.724Z,72.69
2018-03-17T11:11:34.984Z,72.41
2018-03-17T11:12:35.223Z,72.13
2018-03-17T11:13:35.468Z,72.32
2018-03-17T11:14:35.722Z,72.41
2018-03-17T11:15:35.970Z,72.51
2018-03-17T11:16:36.220Z,72.98
2018-03-17T11:17:36.464Z,72.51
2018-03-17T11:18:36.713Z,72.69
2018-03-17T11:19:36.964Z,71.53
2018-03-17T11:20:37.205Z,71.81
2018-03-17T11:21:37.451Z,72.32
2018-03-17T11:22:37.740Z,72.69
2018-03-17T11:23:37.951Z,72.03
2018-03-17T11:24:38.197Z,71.94
2018-03-17T11:25:38.442Z,71.94
2018-03-17T11:26:38.692Z,71.84
2018-03-17T11:27:38.946Z,71.66
2018-03-17T11:28:39.188Z,71.34
2018-03-17T11:29:39.435Z,72.00
2018-03-17T11:30:39.698Z,71.72
2018-03-17T11:31:39.942Z,72.60
2018-03-17T11:32:40.205Z,72.88
2018-03-17T11:33:40.443Z,72.47
2018-03-17T11:34:40.687Z,72.32
2018-03-17T11:35:40.935Z,71.75
2018-03-17T11:36:41.180Z,72.03
2018-03-17T11:37:41.434Z,71.72
2018-03-17T11:38:41.673Z,71.94
2018-03-17T11:39:41.915Z,72.41
2018-03-17T11:40:42.169Z,72.60
2018-03-17T11:41:42.411Z,72.41
2018-03-17T11:42:42.656Z,72.41
2018-03-17T11:43:42.903Z,72.79
2018-03-17T11:44:43.148Z,72.60
2018-03-17T11:45:43.400Z,71.84
2018-03-17T11:46:43.646Z,71.09
2018-03-17T11:47:43.889Z,70.90
2018-03-17T11:48:44.140Z,71.37
2018-03-17T11:49:44.389Z,72.03
2018-03-17T11:50:44.635Z,71.94
2018-03-17T11:51:44.883Z,71.94
2018-03-17T11:52:45.132Z,71.75
2018-03-17T11:53:45.375Z,72.03
2018-03-17T11:54:45.681Z,71.28
2018-03-17T11:55:45.880Z,71.66
2018-03-17T11:56:46.125Z,71.94
2018-03-17T11:57:46.376Z,71.75
2018-03-17T11:58:46.623Z,72.03
2018-03-17T11:59:46.867Z,72.41
2018-03-17T12:00:47.129Z,72.32
2018-03-17T12:01:47.367Z,72.51
2018-03-17T12:02:47.618Z,72.03
2018-03-17T12:03:47.862Z,71.94
2018-03-17T12:04:48.115Z,72.13
2018-03-17T12:05:48.364Z,71.75
2018-03-17T12:06:48.611Z,72.03
2018-03-17T12:07:48.855Z,72.03
2018-03-17T12:08:49.106Z,71.28
2018-03-17T12:09:49.355Z,71.66
2018-03-17T12:10:49.601Z,71.75
2018-03-17T12:11:49.853Z,71.66
2018-03-17T12:12:50.099Z,71.28
2018-03-17T12:13:50.345Z,71.37
2018-03-17T12:14:50.609Z,70.81
2018-03-17T12:15:50.843Z,70.81
2018-03-17T12:16:51.095Z,70.81
2018-03-17T12:17:51.340Z,71.00
2018-03-17T12:18:51.591Z,70.90
2018-03-17T12:19:51.833Z,70.81
2018-03-17T12:20:52.078Z,71.28
2018-03-17T12:21:52.323Z,72.03
2018-03-17T12:22:52.571Z,71.84
2018-03-17T12:23:52.814Z,71.75
2018-03-17T12:24:53.067Z,71.19
2018-03-17T12:25:53.326Z,71.56
2018-03-17T12:26:53.578Z,71.84
2018-03-17T12:27:53.820Z,71.94
2018-03-17T12:28:54.065Z,71.47
2018-03-17T12:29:54.310Z,71.37
2018-03-17T12:30:54.561Z,71.19
2018-03-17T12:31:54.809Z,71.28
2018-03-17T12:32:55.060Z,71.84
2018-03-17T12:33:55.308Z,71.84
2018-03-17T12:34:55.556Z,72.03
2018-03-17T12:35:55.803Z,72.00
2018-03-17T12:36:56.050Z,71.66
2018-03-17T12:37:56.299Z,71.94
2018-03-17T12:38:56.542Z,72.22
2018-03-17T12:39:56.781Z,71.75
2018-03-17T12:40:57.047Z,72.03
2018-03-17T12:41:57.297Z,72.41
2018-03-17T12:42:57.546Z,71.75
2018-03-17T12:43:57.805Z,71.56
2018-03-17T12:44:58.041Z,72.22
2018-03-17T12:45:58.286Z,71.75
2018-03-17T12:46:58.531Z,71.94
2018-03-17T12:47:58.782Z,71.94
2018-03-17T12:48:59.029Z,71.56
2018-03-17T12:49:59.284Z,71.47
2018-03-17T12:50:59.521Z,72.69
2018-03-17T12:51:59.770Z,72.13
2018-03-17T12:53:00.016Z,72.60
2018-03-17T12:54:00.260Z,71.37
2018-03-17T12:55:00.499Z,71.47
2018-03-17T12:56:00.746Z,71.94
2018-03-17T12:57:00.991Z,71.84
2018-03-17T12:58:01.237Z,71.94
2018-03-17T12:59:01.485Z,71.84
2018-03-17T13:00:01.733Z,72.03
2018-03-17T13:03:35.292Z,72.51
2018-03-17T13:04:35.538Z,71.56
2018-03-17T13:05:35.782Z,72.22
2018-03-17T13:06:36.027Z,71.84